sensor_id;sensor_type;location;lat;lon;timestamp;temperature;humidity
3478;DHT22;37937;61.490;23.506;2023-02-01T00:01:39;-3.30;99.90
3478;DHT22;37937;61.490;23.506;2023-02-01T00:04:05;-3.40;99.90
3478;DHT22;37937;61.490;23.506;2023-02-01T00:06:30;-3.40;99.90
3478;DHT22;37937;61.490;23.506;2023-02-01T00:08:56;-3.40;99.90
3478;DHT22;37937;61.490;23.506;2023-02-01T00:11:22;-3.40;99.90
3478;DHT22;37937;61.490;23.506;2023-02-01T00:13:48;-3.40;99.90
3478;DHT22;37937;61.490;23.506;2023-02-01T00:16:15;-3.40;99.90
3478;DHT22;37937;61.490;23.506;2023-02-01T00:18:45;-3.30;99.90
3478;DHT22;37937;61.490;23.506;2023-02-01T00:21:12;-3.30;99.90
3478;DHT22;37937;61.490;23.506;2023-02-01T00:23:38;-3.40;99.90
3478;DHT22;37937;61.490;23.506;2023-02-01T00:26:07;-3.40;99.90
3478;DHT22;37937;61.490;23.506;2023-02-01T00:28:36;-3.30;99.90
3478;DHT22;37937;61.490;23.506;2023-02-01T00:31:02;-3.40;99.90
3478;DHT22;37937;61.490;23.506;2023-02-01T00:33:29;-3.40;99.90
3478;DHT22;37937;61.490;23.506;2023-02-01T00:35:58;-3.30;99.90
3478;DHT22;37937;61.490;23.506;2023-02-01T00:38:25;-3.30;99.90
3478;DHT22;37937;61.490;23.506;2023-02-01T00:40:51;-3.30;99.90
3478;DHT22;37937;61.490;23.506;2023-02-01T00:43:16;-3.30;99.90
3478;DHT22;37937;61.490;23.506;2023-02-01T00:45:42;-3.30;99.90
3478;DHT22;37937;61.490;23.506;2023-02-01T00:48:07;-3.30;99.90
3478;DHT22;37937;61.490;23.506;2023-02-01T00:50:33;-3.30;99.90
3478;DHT22;37937;61.490;23.506;2023-02-01T00:52:59;-3.30;99.90
3478;DHT22;37937;61.490;23.506;2023-02-01T00:55:25;-3.30;99.90
3478;DHT22;37937;61.490;23.506;2023-02-01T00:57:50;-3.30;99.90
3478;DHT22;37937;61.490;23.506;2023-02-01T01:00:16;-3.30;99.90
3478;DHT22;37937;61.490;23.506;2023-02-01T01:02:42;-3.30;99.90
3478;DHT22;37937;61.490;23.506;2023-02-01T01:05:07;-3.30;99.90
3478;DHT22;37937;61.490;23.506;2023-02-01T01:07:33;-3.40;99.90
3478;DHT22;37937;61.490;23.506;2023-02-01T01:09:59;-3.40;99.90
3478;DHT22;37937;61.490;23.506;2023-02-01T01:12:25;-3.40;99.90
3478;DHT22;37937;61.490;23.506;2023-02-01T01:14:51;-3.40;99.90
3478;DHT22;37937;61.490;23.506;2023-02-01T01:17:16;-3.40;99.90
3478;DHT22;37937;61.490;23.506;2023-02-01T01:19:42;-3.40;99.90
3478;DHT22;37937;61.490;23.506;2023-02-01T01:22:08;-3.50;99.90
3478;DHT22;37937;61.490;23.506;2023-02-01T01:24:33;-3.50;99.90
3478;DHT22;37937;61.490;23.506;2023-02-01T01:26:59;-3.40;99.90
3478;DHT22;37937;61.490;23.506;2023-02-01T01:29:25;-3.40;99.90
3478;DHT22;37937;61.490;23.506;2023-02-01T01:31:50;-3.40;99.90
3478;DHT22;37937;61.490;23.506;2023-02-01T01:34:16;-3.40;99.90
3478;DHT22;37937;61.490;23.506;2023-02-01T01:36:42;-3.40;99.90
3478;DHT22;37937;61.490;23.506;2023-02-01T01:39:07;-3.30;99.90
3478;DHT22;37937;61.490;23.506;2023-02-01T01:41:33;-3.30;99.90
3478;DHT22;37937;61.490;23.506;2023-02-01T01:46:25;-3.30;99.90
3478;DHT22;37937;61.490;23.506;2023-02-01T01:48:53;-3.20;99.90
3478;DHT22;37937;61.490;23.506;2023-02-01T01:51:21;-3.20;99.90
3478;DHT22;37937;61.490;23.506;2023-02-01T01:53:54;-3.20;99.90
3478;DHT22;37937;61.490;23.506;2023-02-01T01:56:20;-3.10;99.90
3478;DHT22;37937;61.490;23.506;2023-02-01T01:58:46;-3.10;99.90
3478;DHT22;37937;61.490;23.506;2023-02-01T02:01:12;-3.10;99.90
3478;DHT22;37937;61.490;23.506;2023-02-01T02:03:39;-3.10;99.90
3478;DHT22;37937;61.490;23.506;2023-02-01T02:06:17;-3.10;99.90
3478;DHT22;37937;61.490;23.506;2023-02-01T02:08:45;-3.10;99.90
3478;DHT22;37937;61.490;23.506;2023-02-01T02:11:12;-3.00;99.90
3478;DHT22;37937;61.490;23.506;2023-02-01T02:13:42;-3.10;99.90
3478;DHT22;37937;61.490;23.506;2023-02-01T02:16:13;-3.20;99.90
3478;DHT22;37937;61.490;23.506;2023-02-01T02:21:49;-3.10;99.90
3478;DHT22;37937;61.490;23.506;2023-02-01T02:34:09;-3.00;99.90
3478;DHT22;37937;61.490;23.506;2023-02-01T02:41:50;-3.00;99.90
3478;DHT22;37937;61.490;23.506;2023-02-01T02:44:49;-3.00;99.90
3478;DHT22;37937;61.490;23.506;2023-02-01T02:53:14;-2.90;99.90
3478;DHT22;37937;61.490;23.506;2023-02-01T02:55:58;-2.90;99.90
3478;DHT22;37937;61.490;23.506;2023-02-01T02:58:43;-2.90;99.90
3478;DHT22;37937;61.490;23.506;2023-02-01T03:01:29;-2.90;99.90
3478;DHT22;37937;61.490;23.506;2023-02-01T03:04:14;-2.90;99.90
3478;DHT22;37937;61.490;23.506;2023-02-01T03:06:43;-2.80;99.90
3478;DHT22;37937;61.490;23.506;2023-02-01T03:11:50;-2.80;99.90
3478;DHT22;37937;61.490;23.506;2023-02-01T03:14:36;-2.70;99.90
3478;DHT22;37937;61.490;23.506;2023-02-01T03:17:06;-2.70;99.90
3478;DHT22;37937;61.490;23.506;2023-02-01T03:19:34;-2.60;99.90
3478;DHT22;37937;61.490;23.506;2023-02-01T03:22:05;-2.60;99.90
3478;DHT22;37937;61.490;23.506;2023-02-01T03:27:04;-2.50;99.90
3478;DHT22;37937;61.490;23.506;2023-02-01T03:29:34;-2.50;99.90
3478;DHT22;37937;61.490;23.506;2023-02-01T03:32:02;-2.50;99.90
3478;DHT22;37937;61.490;23.506;2023-02-01T03:34:28;-2.50;99.90
3478;DHT22;37937;61.490;23.506;2023-02-01T03:36:58;-2.50;99.90
3478;DHT22;37937;61.490;23.506;2023-02-01T03:39:27;-2.50;99.90
3478;DHT22;37937;61.490;23.506;2023-02-01T03:41:58;-2.50;99.90
3478;DHT22;37937;61.490;23.506;2023-02-01T03:46:56;-2.50;99.90
3478;DHT22;37937;61.490;23.506;2023-02-01T03:49:27;-2.50;99.90
3478;DHT22;37937;61.490;23.506;2023-02-01T03:51:54;-2.50;99.90
3478;DHT22;37937;61.490;23.506;2023-02-01T03:54:20;-2.50;99.90
3478;DHT22;37937;61.490;23.506;2023-02-01T03:56:46;-2.50;99.90
3478;DHT22;37937;61.490;23.506;2023-02-01T03:59:13;-2.50;99.90
3478;DHT22;37937;61.490;23.506;2023-02-01T04:01:39;-2.40;99.90
3478;DHT22;37937;61.490;23.506;2023-02-01T04:04:05;-2.40;99.90
3478;DHT22;37937;61.490;23.506;2023-02-01T04:06:30;-2.40;99.90
3478;DHT22;37937;61.490;23.506;2023-02-01T04:08:56;-2.40;99.90
3478;DHT22;37937;61.490;23.506;2023-02-01T04:11:21;-2.30;99.90
3478;DHT22;37937;61.490;23.506;2023-02-01T04:13:47;-2.30;99.90
3478;DHT22;37937;61.490;23.506;2023-02-01T04:16:13;-2.30;99.90
3478;DHT22;37937;61.490;23.506;2023-02-01T04:18:38;-2.30;99.90
3478;DHT22;37937;61.490;23.506;2023-02-01T04:21:04;-2.30;99.90
3478;DHT22;37937;61.490;23.506;2023-02-01T04:23:30;-2.30;99.90
3478;DHT22;37937;61.490;23.506;2023-02-01T04:26:00;-2.30;99.90
3478;DHT22;37937;61.490;23.506;2023-02-01T04:28:26;-2.30;99.90
3478;DHT22;37937;61.490;23.506;2023-02-01T04:30:52;-2.30;99.90
3478;DHT22;37937;61.490;23.506;2023-02-01T04:33:18;-2.30;99.90
3478;DHT22;37937;61.490;23.506;2023-02-01T04:35:43;-2.30;99.90
3478;DHT22;37937;61.490;23.506;2023-02-01T04:38:09;-2.30;99.90
3478;DHT22;37937;61.490;23.506;2023-02-01T04:40:35;-2.20;99.90
3478;DHT22;37937;61.490;23.506;2023-02-01T04:43:02;-2.30;99.90
3478;DHT22;37937;61.490;23.506;2023-02-01T04:45:29;-2.30;99.90
3478;DHT22;37937;61.490;23.506;2023-02-01T04:47:54;-2.30;99.90
3478;DHT22;37937;61.490;23.506;2023-02-01T04:50:20;-2.30;99.90
3478;DHT22;37937;61.490;23.506;2023-02-01T04:52:46;-2.30;99.90
3478;DHT22;37937;61.490;23.506;2023-02-01T04:55:11;-2.20;99.90
3478;DHT22;37937;61.490;23.506;2023-02-01T04:57:38;-2.20;99.90
3478;DHT22;37937;61.490;23.506;2023-02-01T05:00:06;-2.20;99.90
3478;DHT22;37937;61.490;23.506;2023-02-01T05:02:32;-2.10;99.90
3478;DHT22;37937;61.490;23.506;2023-02-01T05:04:57;-2.10;99.90
3478;DHT22;37937;61.490;23.506;2023-02-01T05:07:23;-2.10;99.90
3478;DHT22;37937;61.490;23.506;2023-02-01T05:09:49;-2.10;99.90
3478;DHT22;37937;61.490;23.506;2023-02-01T05:12:14;-2.00;99.90
3478;DHT22;37937;61.490;23.506;2023-02-01T05:14:59;-2.00;99.90
3478;DHT22;37937;61.490;23.506;2023-02-01T05:17:24;-2.00;99.90
3478;DHT22;37937;61.490;23.506;2023-02-01T05:19:50;-2.10;99.90
3478;DHT22;37937;61.490;23.506;2023-02-01T05:22:16;-2.10;99.90
3478;DHT22;37937;61.490;23.506;2023-02-01T05:24:41;-2.10;99.90
3478;DHT22;37937;61.490;23.506;2023-02-01T05:27:07;-2.10;99.90
3478;DHT22;37937;61.490;23.506;2023-02-01T05:29:33;-2.00;99.90
3478;DHT22;37937;61.490;23.506;2023-02-01T05:31:58;-2.00;99.90
3478;DHT22;37937;61.490;23.506;2023-02-01T05:34:24;-2.10;99.90
3478;DHT22;37937;61.490;23.506;2023-02-01T05:36:49;-2.10;99.90
3478;DHT22;37937;61.490;23.506;2023-02-01T05:39:15;-2.00;99.90
3478;DHT22;37937;61.490;23.506;2023-02-01T05:41:41;-2.00;99.90
3478;DHT22;37937;61.490;23.506;2023-02-01T05:44:06;-2.00;99.90
3478;DHT22;37937;61.490;23.506;2023-02-01T05:46:33;-1.90;99.90
3478;DHT22;37937;61.490;23.506;2023-02-01T05:48:59;-1.90;99.90
3478;DHT22;37937;61.490;23.506;2023-02-01T05:51:24;-1.90;99.90
3478;DHT22;37937;61.490;23.506;2023-02-01T05:53:50;-2.00;99.90
3478;DHT22;37937;61.490;23.506;2023-02-01T05:56:15;-1.90;99.90
3478;DHT22;37937;61.490;23.506;2023-02-01T05:58:41;-1.90;99.90
3478;DHT22;37937;61.490;23.506;2023-02-01T06:01:07;-1.90;99.90
3478;DHT22;37937;61.490;23.506;2023-02-01T06:03:32;-1.80;99.90
3478;DHT22;37937;61.490;23.506;2023-02-01T06:05:58;-1.80;99.90
3478;DHT22;37937;61.490;23.506;2023-02-01T06:08:25;-1.80;99.90
3478;DHT22;37937;61.490;23.506;2023-02-01T06:10:56;-1.90;99.90
3478;DHT22;37937;61.490;23.506;2023-02-01T06:13:22;-1.90;99.90
3478;DHT22;37937;61.490;23.506;2023-02-01T06:15:48;-1.90;99.90
3478;DHT22;37937;61.490;23.506;2023-02-01T06:18:13;-1.90;99.90
3478;DHT22;37937;61.490;23.506;2023-02-01T06:20:41;-1.80;99.90
3478;DHT22;37937;61.490;23.506;2023-02-01T06:23:06;-1.80;99.90
3478;DHT22;37937;61.490;23.506;2023-02-01T06:25:32;-1.80;99.90
3478;DHT22;37937;61.490;23.506;2023-02-01T06:28:00;-1.80;99.90
3478;DHT22;37937;61.490;23.506;2023-02-01T06:30:25;-1.80;99.90
3478;DHT22;37937;61.490;23.506;2023-02-01T06:32:52;-1.80;99.90
3478;DHT22;37937;61.490;23.506;2023-02-01T06:35:20;-1.80;99.90
3478;DHT22;37937;61.490;23.506;2023-02-01T06:37:46;-1.80;99.90
3478;DHT22;37937;61.490;23.506;2023-02-01T06:40:12;-1.80;99.90
3478;DHT22;37937;61.490;23.506;2023-02-01T06:42:37;-1.80;99.90
3478;DHT22;37937;61.490;23.506;2023-02-01T06:45:03;-1.80;99.90
3478;DHT22;37937;61.490;23.506;2023-02-01T06:47:29;-1.80;99.90
3478;DHT22;37937;61.490;23.506;2023-02-01T06:49:55;-1.80;99.90
3478;DHT22;37937;61.490;23.506;2023-02-01T06:52:20;-1.80;99.90
3478;DHT22;37937;61.490;23.506;2023-02-01T06:54:46;-1.80;99.90
3478;DHT22;37937;61.490;23.506;2023-02-01T06:57:11;-1.80;99.90
3478;DHT22;37937;61.490;23.506;2023-02-01T06:59:37;-1.80;99.90
3478;DHT22;37937;61.490;23.506;2023-02-01T07:02:03;-1.80;99.90
3478;DHT22;37937;61.490;23.506;2023-02-01T07:04:28;-1.70;99.90
3478;DHT22;37937;61.490;23.506;2023-02-01T07:06:55;-1.70;99.90
3478;DHT22;37937;61.490;23.506;2023-02-01T07:09:21;-1.70;99.90
3478;DHT22;37937;61.490;23.506;2023-02-01T07:11:46;-1.60;99.90
3478;DHT22;37937;61.490;23.506;2023-02-01T07:14:12;-1.60;99.90
3478;DHT22;37937;61.490;23.506;2023-02-01T07:16:38;-1.60;99.90
3478;DHT22;37937;61.490;23.506;2023-02-01T07:19:04;-1.60;99.90
3478;DHT22;37937;61.490;23.506;2023-02-01T07:21:30;-1.60;99.90
3478;DHT22;37937;61.490;23.506;2023-02-01T07:23:55;-1.50;99.90
3478;DHT22;37937;61.490;23.506;2023-02-01T07:26:21;-1.50;99.90
3478;DHT22;37937;61.490;23.506;2023-02-01T07:28:47;-1.50;99.90
3478;DHT22;37937;61.490;23.506;2023-02-01T07:31:16;-1.50;99.90
3478;DHT22;37937;61.490;23.506;2023-02-01T07:33:44;-1.50;99.90
3478;DHT22;37937;61.490;23.506;2023-02-01T07:36:11;-1.50;99.90
3478;DHT22;37937;61.490;23.506;2023-02-01T07:38:38;-1.50;99.90
3478;DHT22;37937;61.490;23.506;2023-02-01T07:41:04;-1.50;99.90
3478;DHT22;37937;61.490;23.506;2023-02-01T07:43:30;-1.50;99.90
3478;DHT22;37937;61.490;23.506;2023-02-01T07:45:56;-1.50;99.90
3478;DHT22;37937;61.490;23.506;2023-02-01T07:48:22;-1.40;99.90
3478;DHT22;37937;61.490;23.506;2023-02-01T07:50:56;-1.40;99.90
3478;DHT22;37937;61.490;23.506;2023-02-01T07:53:21;-1.40;99.90
3478;DHT22;37937;61.490;23.506;2023-02-01T07:55:47;-1.40;99.90
3478;DHT22;37937;61.490;23.506;2023-02-01T07:58:13;-1.40;99.90
3478;DHT22;37937;61.490;23.506;2023-02-01T08:00:38;-1.40;99.90
3478;DHT22;37937;61.490;23.506;2023-02-01T08:03:23;-1.40;99.90
3478;DHT22;37937;61.490;23.506;2023-02-01T08:05:53;-1.40;99.90
3478;DHT22;37937;61.490;23.506;2023-02-01T08:08:18;-1.50;99.90
3478;DHT22;37937;61.490;23.506;2023-02-01T08:10:44;-1.40;99.90
3478;DHT22;37937;61.490;23.506;2023-02-01T08:13:10;-1.40;99.90
3478;DHT22;37937;61.490;23.506;2023-02-01T08:15:35;-1.40;99.90
3478;DHT22;37937;61.490;23.506;2023-02-01T08:18:01;-1.40;99.90
3478;DHT22;37937;61.490;23.506;2023-02-01T08:20:27;-1.30;99.90
3478;DHT22;37937;61.490;23.506;2023-02-01T08:22:53;-1.40;99.90
3478;DHT22;37937;61.490;23.506;2023-02-01T08:25:19;-1.40;99.90
3478;DHT22;37937;61.490;23.506;2023-02-01T08:27:45;-1.30;99.90
3478;DHT22;37937;61.490;23.506;2023-02-01T08:30:11;-1.30;99.90
3478;DHT22;37937;61.490;23.506;2023-02-01T08:32:37;-1.30;99.90
3478;DHT22;37937;61.490;23.506;2023-02-01T08:35:03;-1.20;99.90
3478;DHT22;37937;61.490;23.506;2023-02-01T08:37:29;-1.20;99.90
3478;DHT22;37937;61.490;23.506;2023-02-01T08:39:55;-1.00;99.90
3478;DHT22;37937;61.490;23.506;2023-02-01T08:42:20;-1.00;99.90
3478;DHT22;37937;61.490;23.506;2023-02-01T08:45:05;-1.00;99.90
3478;DHT22;37937;61.490;23.506;2023-02-01T08:47:33;-1.00;99.90
3478;DHT22;37937;61.490;23.506;2023-02-01T08:49:59;-0.90;99.90
3478;DHT22;37937;61.490;23.506;2023-02-01T08:52:24;-0.90;99.90
3478;DHT22;37937;61.490;23.506;2023-02-01T08:54:50;-0.90;99.90
3478;DHT22;37937;61.490;23.506;2023-02-01T08:57:16;-0.90;99.90
3478;DHT22;37937;61.490;23.506;2023-02-01T08:59:42;-0.90;99.90
3478;DHT22;37937;61.490;23.506;2023-02-01T09:02:12;-0.90;99.90
3478;DHT22;37937;61.490;23.506;2023-02-01T09:04:37;-0.90;99.90
3478;DHT22;37937;61.490;23.506;2023-02-01T09:07:03;-0.90;99.90
3478;DHT22;37937;61.490;23.506;2023-02-01T09:09:29;-0.90;99.90
3478;DHT22;37937;61.490;23.506;2023-02-01T09:11:55;-0.80;99.90
3478;DHT22;37937;61.490;23.506;2023-02-01T09:14:20;-0.80;99.90
3478;DHT22;37937;61.490;23.506;2023-02-01T09:16:46;-0.90;99.90
3478;DHT22;37937;61.490;23.506;2023-02-01T09:19:11;-0.80;99.90
3478;DHT22;37937;61.490;23.506;2023-02-01T09:21:37;-0.80;99.90
3478;DHT22;37937;61.490;23.506;2023-02-01T09:24:03;-0.80;99.90
3478;DHT22;37937;61.490;23.506;2023-02-01T09:26:29;-0.80;99.90
3478;DHT22;37937;61.490;23.506;2023-02-01T09:28:55;-0.70;99.90
3478;DHT22;37937;61.490;23.506;2023-02-01T09:31:20;-0.70;99.90
3478;DHT22;37937;61.490;23.506;2023-02-01T09:33:46;-0.70;99.90
3478;DHT22;37937;61.490;23.506;2023-02-01T09:36:11;-0.60;99.90
3478;DHT22;37937;61.490;23.506;2023-02-01T09:38:37;-0.60;99.90
3478;DHT22;37937;61.490;23.506;2023-02-01T09:41:07;-0.60;99.90
3478;DHT22;37937;61.490;23.506;2023-02-01T09:48:43;-0.50;99.90
3478;DHT22;37937;61.490;23.506;2023-02-01T09:51:13;-0.50;99.90
3478;DHT22;37937;61.490;23.506;2023-02-01T09:53:41;-0.40;99.90
3478;DHT22;37937;61.490;23.506;2023-02-01T09:56:15;-0.40;99.90
3478;DHT22;37937;61.490;23.506;2023-02-01T10:01:35;-0.40;99.90
3478;DHT22;37937;61.490;23.506;2023-02-01T10:04:02;-0.40;99.90
3478;DHT22;37937;61.490;23.506;2023-02-01T10:06:41;-0.40;99.90
3478;DHT22;37937;61.490;23.506;2023-02-01T10:14:46;-0.50;99.90
3478;DHT22;37937;61.490;23.506;2023-02-01T10:20:11;-0.60;99.90
3478;DHT22;37937;61.490;23.506;2023-02-01T10:25:12;-0.20;99.90
3478;DHT22;37937;61.490;23.506;2023-02-01T10:27:39;-0.10;99.90
3478;DHT22;37937;61.490;23.506;2023-02-01T10:30:40;0.00;99.90
3478;DHT22;37937;61.490;23.506;2023-02-01T10:32:56;0.10;99.90
3478;DHT22;37937;61.490;23.506;2023-02-01T10:35:24;0.20;99.90
3478;DHT22;37937;61.490;23.506;2023-02-01T10:37:51;0.30;99.90
3478;DHT22;37937;61.490;23.506;2023-02-01T10:40:24;0.30;99.90
3478;DHT22;37937;61.490;23.506;2023-02-01T10:42:51;0.30;99.90
3478;DHT22;37937;61.490;23.506;2023-02-01T10:45:21;0.40;99.90
3478;DHT22;37937;61.490;23.506;2023-02-01T10:47:50;0.40;99.90
3478;DHT22;37937;61.490;23.506;2023-02-01T10:50:19;0.40;99.90
3478;DHT22;37937;61.490;23.506;2023-02-01T10:52:52;0.20;99.90
3478;DHT22;37937;61.490;23.506;2023-02-01T10:58:00;0.20;99.90
3478;DHT22;37937;61.490;23.506;2023-02-01T11:00:26;0.00;99.90
3478;DHT22;37937;61.490;23.506;2023-02-01T11:02:52;0.00;99.90
3478;DHT22;37937;61.490;23.506;2023-02-01T11:05:18;0.00;99.90
3478;DHT22;37937;61.490;23.506;2023-02-01T11:07:54;-0.10;99.90
3478;DHT22;37937;61.490;23.506;2023-02-01T11:10:37;-0.10;99.90
3478;DHT22;37937;61.490;23.506;2023-02-01T11:13:04;-0.10;99.90
3478;DHT22;37937;61.490;23.506;2023-02-01T11:15:29;-0.20;99.90
3478;DHT22;37937;61.490;23.506;2023-02-01T11:17:55;-0.20;99.90
3478;DHT22;37937;61.490;23.506;2023-02-01T11:22:56;-0.40;99.90
3478;DHT22;37937;61.490;23.506;2023-02-01T11:25:22;-0.40;99.90
3478;DHT22;37937;61.490;23.506;2023-02-01T11:27:49;-0.40;99.90
3478;DHT22;37937;61.490;23.506;2023-02-01T11:32:59;-0.50;99.90
3478;DHT22;37937;61.490;23.506;2023-02-01T11:35:26;-0.50;99.90
3478;DHT22;37937;61.490;23.506;2023-02-01T11:37:58;-0.50;99.90
3478;DHT22;37937;61.490;23.506;2023-02-01T11:40:37;-0.50;99.90
3478;DHT22;37937;61.490;23.506;2023-02-01T11:45:55;-0.50;99.90
3478;DHT22;37937;61.490;23.506;2023-02-01T11:48:21;-0.60;99.90
3478;DHT22;37937;61.490;23.506;2023-02-01T11:50:57;-0.60;99.90
3478;DHT22;37937;61.490;23.506;2023-02-01T11:53:26;-0.70;99.90
3478;DHT22;37937;61.490;23.506;2023-02-01T12:01:12;-0.70;99.90
3478;DHT22;37937;61.490;23.506;2023-02-01T12:06:25;-0.70;99.90
3478;DHT22;37937;61.490;23.506;2023-02-01T12:08:59;-0.80;99.90
3478;DHT22;37937;61.490;23.506;2023-02-01T12:11:35;-0.80;99.90
3478;DHT22;37937;61.490;23.506;2023-02-01T12:19:25;-0.90;99.90
3478;DHT22;37937;61.490;23.506;2023-02-01T12:22:55;-1.00;99.90
3478;DHT22;37937;61.490;23.506;2023-02-01T12:37:37;-1.00;99.90
3478;DHT22;37937;61.490;23.506;2023-02-01T12:43:16;-0.90;99.90
3478;DHT22;37937;61.490;23.506;2023-02-01T12:45:46;-0.90;99.90
3478;DHT22;37937;61.490;23.506;2023-02-01T12:48:20;-0.90;99.90
3478;DHT22;37937;61.490;23.506;2023-02-01T12:50:53;-0.90;99.90
3478;DHT22;37937;61.490;23.506;2023-02-01T12:53:24;-0.90;99.90
3478;DHT22;37937;61.490;23.506;2023-02-01T12:55:54;-1.10;99.90
3478;DHT22;37937;61.490;23.506;2023-02-01T12:58:24;-1.10;99.90
3478;DHT22;37937;61.490;23.506;2023-02-01T13:01:02;-1.10;99.90
3478;DHT22;37937;61.490;23.506;2023-02-01T13:06:19;-1.30;99.90
3478;DHT22;37937;61.490;23.506;2023-02-01T13:08:51;-1.30;99.90
3478;DHT22;37937;61.490;23.506;2023-02-01T13:11:33;-1.40;99.90
3478;DHT22;37937;61.490;23.506;2023-02-01T13:14:01;-1.30;99.90
3478;DHT22;37937;61.490;23.506;2023-02-01T13:16:30;-1.40;99.90
3478;DHT22;37937;61.490;23.506;2023-02-01T13:21:42;-1.50;99.90
3478;DHT22;37937;61.490;23.506;2023-02-01T13:24:18;-1.60;99.90
3478;DHT22;37937;61.490;23.506;2023-02-01T13:26:45;-1.70;99.90
3478;DHT22;37937;61.490;23.506;2023-02-01T13:29:11;-1.70;99.90
3478;DHT22;37937;61.490;23.506;2023-02-01T13:41:55;-2.00;99.90
3478;DHT22;37937;61.490;23.506;2023-02-01T13:44:45;-2.00;99.90
3478;DHT22;37937;61.490;23.506;2023-02-01T13:49:42;-2.10;99.90
3478;DHT22;37937;61.490;23.506;2023-02-01T13:52:21;-2.00;99.90
3478;DHT22;37937;61.490;23.506;2023-02-01T13:54:49;-2.00;99.90
3478;DHT22;37937;61.490;23.506;2023-02-01T14:23:44;-1.90;99.90
3478;DHT22;37937;61.490;23.506;2023-02-01T14:26:11;-2.00;99.90
3478;DHT22;37937;61.490;23.506;2023-02-01T14:28:39;-2.00;99.90
3478;DHT22;37937;61.490;23.506;2023-02-01T14:31:16;-2.00;99.90
3478;DHT22;37937;61.490;23.506;2023-02-01T14:33:43;-2.00;99.90
3478;DHT22;37937;61.490;23.506;2023-02-01T14:36:10;-2.00;99.90
3478;DHT22;37937;61.490;23.506;2023-02-01T14:38:39;-1.90;99.90
3478;DHT22;37937;61.490;23.506;2023-02-01T14:41:26;-1.90;99.90
3478;DHT22;37937;61.490;23.506;2023-02-01T14:49:13;-1.90;99.90
3478;DHT22;37937;61.490;23.506;2023-02-01T14:51:38;-1.90;99.90
3478;DHT22;37937;61.490;23.506;2023-02-01T14:54:06;-1.90;99.90
3478;DHT22;37937;61.490;23.506;2023-02-01T14:56:33;-2.00;99.90
3478;DHT22;37937;61.490;23.506;2023-02-01T14:59:00;-2.00;99.90
3478;DHT22;37937;61.490;23.506;2023-02-01T15:01:30;-2.00;99.90
3478;DHT22;37937;61.490;23.506;2023-02-01T15:09:18;-2.00;99.90
3478;DHT22;37937;61.490;23.506;2023-02-01T15:12:01;-2.10;99.90
3478;DHT22;37937;61.490;23.506;2023-02-01T15:14:28;-2.00;99.90
3478;DHT22;37937;61.490;23.506;2023-02-01T15:16:54;-2.00;99.90
3478;DHT22;37937;61.490;23.506;2023-02-01T15:19:21;-2.00;99.90
3478;DHT22;37937;61.490;23.506;2023-02-01T15:21:48;-2.00;99.90
3478;DHT22;37937;61.490;23.506;2023-02-01T15:24:19;-2.00;99.90
3478;DHT22;37937;61.490;23.506;2023-02-01T15:26:44;-1.90;99.90
3478;DHT22;37937;61.490;23.506;2023-02-01T15:29:11;-1.90;99.90
3478;DHT22;37937;61.490;23.506;2023-02-01T15:31:38;-1.90;99.90
3478;DHT22;37937;61.490;23.506;2023-02-01T15:34:04;-1.90;99.90
3478;DHT22;37937;61.490;23.506;2023-02-01T15:36:29;-1.90;99.90
3478;DHT22;37937;61.490;23.506;2023-02-01T15:41:38;-1.90;99.90
3478;DHT22;37937;61.490;23.506;2023-02-01T15:44:17;-1.80;99.90
3478;DHT22;37937;61.490;23.506;2023-02-01T15:46:48;-1.80;99.90
3478;DHT22;37937;61.490;23.506;2023-02-01T15:51:44;-1.80;99.90
3478;DHT22;37937;61.490;23.506;2023-02-01T15:54:17;-1.80;99.90
3478;DHT22;37937;61.490;23.506;2023-02-01T15:56:49;-1.80;99.90
3478;DHT22;37937;61.490;23.506;2023-02-01T15:59:22;-1.80;99.90
3478;DHT22;37937;61.490;23.506;2023-02-01T16:01:49;-1.70;99.90
3478;DHT22;37937;61.490;23.506;2023-02-01T16:04:26;-1.70;99.90
3478;DHT22;37937;61.490;23.506;2023-02-01T16:07:02;-1.70;99.90
3478;DHT22;37937;61.490;23.506;2023-02-01T16:09:37;-1.70;99.90
3478;DHT22;37937;61.490;23.506;2023-02-01T16:12:04;-1.70;99.90
3478;DHT22;37937;61.490;23.506;2023-02-01T16:14:45;-1.60;99.90
3478;DHT22;37937;61.490;23.506;2023-02-01T16:17:10;-1.60;99.90
3478;DHT22;37937;61.490;23.506;2023-02-01T16:19:36;-1.60;99.90
3478;DHT22;37937;61.490;23.506;2023-02-01T16:22:02;-1.60;99.90
3478;DHT22;37937;61.490;23.506;2023-02-01T16:24:27;-1.60;99.90
3478;DHT22;37937;61.490;23.506;2023-02-01T16:26:53;-1.60;99.90
3478;DHT22;37937;61.490;23.506;2023-02-01T16:29:19;-1.60;99.90
3478;DHT22;37937;61.490;23.506;2023-02-01T16:31:46;-1.50;99.90
3478;DHT22;37937;61.490;23.506;2023-02-01T16:34:14;-1.50;99.90
3478;DHT22;37937;61.490;23.506;2023-02-01T16:36:42;-1.50;99.90
3478;DHT22;37937;61.490;23.506;2023-02-01T16:39:12;-1.50;99.90
3478;DHT22;37937;61.490;23.506;2023-02-01T16:41:38;-1.50;99.90
3478;DHT22;37937;61.490;23.506;2023-02-01T16:44:04;-1.50;99.90
3478;DHT22;37937;61.490;23.506;2023-02-01T16:46:32;-1.50;99.90
3478;DHT22;37937;61.490;23.506;2023-02-01T16:48:58;-1.50;99.90
3478;DHT22;37937;61.490;23.506;2023-02-01T16:51:25;-1.50;99.90
3478;DHT22;37937;61.490;23.506;2023-02-01T16:53:52;-1.60;99.90
3478;DHT22;37937;61.490;23.506;2023-02-01T16:56:19;-1.60;99.90
3478;DHT22;37937;61.490;23.506;2023-02-01T16:58:46;-1.60;99.90
3478;DHT22;37937;61.490;23.506;2023-02-01T17:01:12;-1.70;99.90
3478;DHT22;37937;61.490;23.506;2023-02-01T17:03:39;-1.70;99.90
3478;DHT22;37937;61.490;23.506;2023-02-01T17:06:04;-1.70;99.90
3478;DHT22;37937;61.490;23.506;2023-02-01T17:08:32;-1.70;99.90
3478;DHT22;37937;61.490;23.506;2023-02-01T17:10:59;-1.70;99.90
3478;DHT22;37937;61.490;23.506;2023-02-01T17:13:26;-1.70;99.90
3478;DHT22;37937;61.490;23.506;2023-02-01T17:15:53;-1.70;99.90
3478;DHT22;37937;61.490;23.506;2023-02-01T17:18:20;-1.70;99.90
3478;DHT22;37937;61.490;23.506;2023-02-01T17:20:46;-1.80;99.90
3478;DHT22;37937;61.490;23.506;2023-02-01T17:23:13;-1.80;99.90
3478;DHT22;37937;61.490;23.506;2023-02-01T17:25:39;-1.70;99.90
3478;DHT22;37937;61.490;23.506;2023-02-01T17:28:04;-1.70;99.90
3478;DHT22;37937;61.490;23.506;2023-02-01T17:30:30;-1.70;99.90
3478;DHT22;37937;61.490;23.506;2023-02-01T17:32:56;-1.70;99.90
3478;DHT22;37937;61.490;23.506;2023-02-01T17:35:23;-1.70;99.90
3478;DHT22;37937;61.490;23.506;2023-02-01T17:37:49;-1.70;99.90
3478;DHT22;37937;61.490;23.506;2023-02-01T17:40:15;-1.70;99.90
3478;DHT22;37937;61.490;23.506;2023-02-01T17:42:41;-1.70;99.90
3478;DHT22;37937;61.490;23.506;2023-02-01T17:47:38;-1.60;99.90
3478;DHT22;37937;61.490;23.506;2023-02-01T17:50:04;-1.70;99.90
3478;DHT22;37937;61.490;23.506;2023-02-01T17:52:30;-1.70;99.90
3478;DHT22;37937;61.490;23.506;2023-02-01T17:54:55;-1.70;99.90
3478;DHT22;37937;61.490;23.506;2023-02-01T17:57:21;-1.70;99.90
3478;DHT22;37937;61.490;23.506;2023-02-01T17:59:46;-1.70;99.90
3478;DHT22;37937;61.490;23.506;2023-02-01T18:02:19;-1.70;99.90
3478;DHT22;37937;61.490;23.506;2023-02-01T18:04:45;-1.70;99.90
3478;DHT22;37937;61.490;23.506;2023-02-01T18:07:11;-1.70;99.90
3478;DHT22;37937;61.490;23.506;2023-02-01T18:09:36;-1.70;99.90
3478;DHT22;37937;61.490;23.506;2023-02-01T18:12:03;-1.70;99.90
3478;DHT22;37937;61.490;23.506;2023-02-01T18:14:29;-1.70;99.90